Friday, February 23, 2018, 7:09 AM EST
Back to Local

KPSF, Pittsfield Municipal Airport

Location: Pittsfield, MA, United States Lat: 42.433
Local Time: 7:09 AM EST (12:09 GMT) Lon: -73.283
Time Zone: US/Eastern Elev: 1194 ft

Show me the last for .
Show Decoded

2018-02-23 06:36 METAR KPSF 231136Z AUTO 00000KT 1/4SM FZFG VV001 M04/M05 A3059 RMK AO2 I1000
                 T10391050 =
2018-02-23 06:29 METAR KPSF 231129Z AUTO 00000KT 1/2SM FZFG VV001 M04/M05 A3059 RMK AO2 I1000
                 T10441050 =
2018-02-23 06:04 METAR KPSF 231104Z AUTO 04004KT 1/4SM FZFG VV001 M04/M06 A3058 RMK AO2 T10441061
                 =
2018-02-23 05:54 METAR KPSF 231054Z AUTO 04003KT 1/2SM FZFG VV001 M04/M06 A3059 RMK AO2 SLP374
                 I1000 T10391056 =
2018-02-23 05:47 METAR KPSF 231047Z AUTO 03003KT 3/4SM BR VV002 M04/M06 A3059 RMK AO2 I1000
                 T10391056 =
2018-02-23 05:44 METAR KPSF 231044Z AUTO 04003KT 1 1/2SM BR SCT002 M04/M06 A3059 RMK AO2 VIS
                 1/2V5 I1000 T10441056 =
2018-02-23 05:42 METAR KPSF 231042Z AUTO 04003KT 3SM BR SCT002 M04/M06 A3059 RMK AO2 I1000
                 T10441056 =
2018-02-23 05:27 METAR KPSF 231027Z AUTO 00000KT 3SM BR BKN002 M04/M05 A3059 RMK AO2 T10391050 =
2018-02-23 05:08 METAR KPSF 231008Z AUTO 07003KT 1SM BR VV002 M03/M05 A3060 RMK AO2 T10331050 =
2018-02-23 04:54 METAR KPSF 230954Z AUTO 00000KT 1/4SM FZFG VV002 M03/M04 A3061 RMK AO2 SLP379
                 I1000 T10331044 =
2018-02-23 04:45 METAR KPSF 230945Z AUTO 00000KT 1/4SM FZFG VV002 M03/M04 A3062 RMK AO2 T10331044
                 =
2018-02-23 04:23 METAR KPSF 230923Z AUTO 00000KT 3/4SM BR VV002 M03/M04 A3061 RMK AO2 T10281044 =
2018-02-23 04:15 METAR KPSF 230915Z AUTO 00000KT 1/4SM FZFG VV002 M03/M04 A3061 RMK AO2 T10281044
                 =
2018-02-23 04:04 METAR KPSF 230904Z AUTO 00000KT 1/2SM FZFG VV002 M03/M04 A3059 RMK AO2 T10281044
                 =
2018-02-23 03:54 METAR KPSF 230854Z AUTO 01003KT 1/4SM FZFG VV002 M03/M04 A3059 RMK AO2 SLP372
                 I1000 I3000 T10281044 58011 =
2018-02-23 03:42 METAR KPSF 230842Z AUTO 03003KT 3/4SM BR OVC002 M03/M04 A3058 RMK AO2 I1000
                 T10281044 =
2018-02-23 03:34 METAR KPSF 230834Z AUTO 03003KT 2 1/2SM BR BKN002 BKN007 M03/M04 A3058 RMK AO2
                 I1000 T10331044 =
2018-02-23 02:54 METAR KPSF 230754Z AUTO 00000KT 10SM OVC008 M03/M04 A3060 RMK AO2 SLP376 I1000
                 T10281039 =
2018-02-23 01:54 METAR KPSF 230654Z AUTO 00000KT 9SM OVC008 M02/M04 A3064 RMK AO2 CIG 004V010
                 SLP388 T10221039 =
2018-02-23 01:14 METAR KPSF 230614Z AUTO 00000KT 7SM OVC005 M02/M04 A3062 RMK AO2 CIG 003V008
                 T10221039 =
2018-02-23 00:54 METAR KPSF 230554Z AUTO 25003KT 8SM OVC003 M02/M04 A3062 RMK AO2 SLP382 I6002
                 T10221039 11017 21039 50000 =
2018-02-22 23:54 METAR KPSF 230454Z AUTO 35003KT 6SM BR OVC002 M02/M04 A3062 RMK AO2 SLP382
                 T10221039 400391039 =
2018-02-22 22:54 METAR KPSF 230354Z AUTO 36003KT 6SM BR OVC003 M03/M04 A3062 RMK AO2 CIG 002V006
                 SLP381 I1001 T10281039 =
2018-02-22 22:45 METAR KPSF 230345Z AUTO 01004KT 9SM BKN005 M03/M05 A3063 RMK AO2 I1001 T10331050
                 =
2018-02-22 22:35 METAR KPSF 230335Z AUTO 02003KT 10SM SCT003 M04/M06 A3062 RMK AO2 I1000
                 T10391056 =
2018-02-22 21:54 METAR KPSF 230254Z AUTO 00000KT 10SM CLR M04/M06 A3062 RMK AO2 SLP382 I1000
                 I3001 T10391056 51015 =
2018-02-22 20:54 METAR KPSF 230154Z AUTO 00000KT 10SM CLR M03/M05 A3061 RMK AO2 SLP378 I1001
                 T10331050 =
2018-02-22 19:54 METAR KPSF 230054Z AUTO 00000KT 10SM FEW009 M02/M04 A3059 RMK AO2 SLP369 I1000
                 T10221039 =
2018-02-22 19:25 METAR KPSF 230025Z AUTO 00000KT 10SM SCT009 M02/M03 A3059 RMK AO2 T10171033 =
2018-02-22 18:54 METAR KPSF 222354Z AUTO 00000KT 10SM FEW090 M02/M04 A3058 RMK AO2 SLP364 60017
                 T10171039 10017 21017 58005 =
2018-02-22 17:54 METAR KPSF 222254Z AUTO 00000KT 10SM OVC095 M01/M02 A3059 RMK AO2 SNE14 SLP369
                 P0000 T10061022 =
2018-02-22 17:10 METAR KPSF 222210Z AUTO 06003KT 7SM -SN SCT003 BKN048 OVC100 00/M02 A3060 RMK
                 AO2 P0000 T00001022 =
2018-02-22 17:03 METAR KPSF 222203Z AUTO 00000KT 4SM -SN BR SCT003 BKN011 OVC045 00/M02 A3060 RMK
                 AO2 P0000 T00001017 =
2018-02-22 17:00 METAR KPSF 222200Z AUTO 00000KT 3SM -SN BR BKN003 BKN009 OVC040 M01/M02 A3060
                 RMK AO2 P0000 T10061017 =
2018-02-22 16:54 METAR KPSF 222154Z AUTO 06003KT 1 1/2SM -SN BR BKN004 BKN009 OVC018 00/M02 A3061
                 RMK AO2 SLP373 P0003 T00001017 =
2018-02-22 16:34 METAR KPSF 222134Z AUTO 03004KT 3/4SM -SN BR BKN004 OVC017 00/M02 A3061 RMK AO2
                 P0002 T00001017 =
2018-02-22 16:12 METAR KPSF 222112Z AUTO 02005KT 1SM -SN BR BKN003 OVC021 00/M02 A3060 RMK AO2
                 P0001 T00001017 =
2018-02-22 15:54 METAR KPSF 222054Z AUTO 03006KT 1/2SM SN FG BKN004 BKN009 OVC012 01/M01 A3059
                 RMK AO2 SLP366 P0006 60014 T00061011 53010 =
2018-02-22 15:35 METAR KPSF 222035Z AUTO 34003KT 1/2SM SN FG BKN004 OVC009 01/M01 A3058 RMK AO2
                 P0005 T00061011 =
2018-02-22 14:54 METAR KPSF 221954Z AUTO 00000KT 1/2SM SN FG SCT004 OVC010 01/M01 A3057 RMK AO2
                 SLP361 P0006 T00061011 =
2018-02-22 14:44 METAR KPSF 221944Z AUTO 00000KT 1/2SM SN FG SCT006 OVC010 00/M01 A3057 RMK AO2
                 P0005 T00001011 =
2018-02-22 14:37 METAR KPSF 221937Z AUTO 00000KT 1/4SM SN FG FEW003 OVC011 00/M01 A3057 RMK AO2
                 P0005 T00001011 =
2018-02-22 14:23 METAR KPSF 221923Z AUTO 00000KT 1/2SM SN FG FEW005 OVC013 01/M01 A3056 RMK AO2
                 P0003 T00061011 =
2018-02-22 14:14 METAR KPSF 221914Z AUTO 00000KT 1/2SM SN FG SCT012 OVC018 01/M01 A3056 RMK AO2
                 P0001 T00061011 =
2018-02-22 13:54 METAR KPSF 221854Z AUTO 00000KT 1SM -SN BR FEW007 OVC026 01/M02 A3055 RMK AO2
                 SNB02 SLP353 P0002 T00061017 =
2018-02-22 13:49 METAR KPSF 221849Z AUTO 01003KT 1 1/4SM -SN FEW007 BKN028 OVC048 01/M02 A3055
                 RMK AO2 SNB02 P0001 =
2018-02-22 13:40 METAR KPSF 221840Z AUTO 00000KT 1 1/2SM -SN FEW013 BKN032 OVC048 01/M02 A3054
                 RMK AO2 SNB02 P0001 T00111022 =
2018-02-22 13:27 METAR KPSF 221827Z AUTO 03003KT 2 1/2SM -SN BKN045 OVC050 01/M03 A3055 RMK AO2
                 SNB02 P0000 T00111028 =
2018-02-22 12:54 METAR KPSF 221754Z AUTO 02005KT 8SM BKN049 OVC060 02/M03 A3056 RMK AO2 SNE52
                 SLP355 P0000 60001 T00171028 10033 20017 58018 =
2018-02-22 12:16 METAR KPSF 221716Z AUTO 03005KT 5SM -SN BKN047 OVC060 02/M03 A3059 RMK AO2 P0000
                 T00171028 =
2018-02-22 11:54 METAR KPSF 221654Z AUTO 01005KT 2 1/2SM -SN SCT029 OVC046 02/M02 A3059 RMK AO2
                 VIS 2V3 SNB34 SLP366 P0001 T00171022 =
2018-02-22 11:50 METAR KPSF 221650Z AUTO 01007KT 2 1/2SM -SN BKN029 BKN046 OVC055 02/M02 A3060
                 RMK AO2 SNB34 P0001 =
2018-02-22 10:54 METAR KPSF 221554Z AUTO 00000KT 10SM OVC080 03/M03 A3061 RMK AO2 SNB1455E29
                 SLP371 P0000 T00331028 =
2018-02-22 09:54 METAR KPSF 221454Z AUTO 24003KT 10SM SCT050 OVC060 03/M03 A3062 RMK AO2
                 UPE25RAB09E23 SLP374 P0000 60000 T00281028 53025 =
2018-02-22 08:54 METAR KPSF 221354Z AUTO 06004KT 10SM UP OVC080 03/M03 A3057 RMK AO2 UPB08E21B49
                 SLP355 P0000 T00281033 =
2018-02-22 07:54 METAR KPSF 221254Z AUTO 00000KT 10SM BKN075 OVC090 03/M04 A3058 RMK AO2
                 RAB23E39UPB39E53 SLP355 P0000 T00281039 =

Support USWX by starting your Amazon purchase here.